Time;durP1;ratioP1;P1;durP2;ratioP2;P2;SDS_P1;SDS_P2;PMS_P1;PMS_P2;Temp;Humidity;BMP_temperature;BMP_pressure;BME280_temperature;BME280_humidity;BME280_pressure;Samples;Min_cycle;Max_cycle;Signal;HPM_P1;HPM_P2
2024/02/03 00:00:46;;;;;;;16.67;13.10;;;9.70;99.90;;;;;;5073331;28;20814;-56
2024/02/03 00:03:13;;;;;;;15.73;12.33;;;9.70;99.90;;;;;;5073667;28;20479;-56
2024/02/03 00:05:40;;;;;;;13.80;12.10;;;9.70;99.90;;;;;;5073624;28;20479;-56
2024/02/03 00:08:07;;;;;;;17.80;12.23;;;9.70;99.90;;;;;;5073264;28;20484;-56
2024/02/03 00:10:34;;;;;;;15.30;12.00;;;9.70;99.90;;;;;;5073618;28;20451;-56
2024/02/03 00:13:01;;;;;;;14.50;11.67;;;9.70;99.90;;;;;;5073406;28;20493;-56
2024/02/03 00:15:28;;;;;;;17.77;13.70;;;9.70;99.90;;;;;;5073453;28;20460;-56
2024/02/03 00:17:56;;;;;;;14.90;13.30;;;9.70;99.90;;;;;;5073434;28;20437;-56
2024/02/03 00:20:23;;;;;;;17.63;14.67;;;9.80;99.90;;;;;;5073455;28;20436;-56
2024/02/03 00:22:51;;;;;;;17.73;13.13;;;9.80;99.90;;;;;;5073198;28;20527;-56
2024/02/03 00:25:18;;;;;;;16.10;12.93;;;9.80;99.90;;;;;;5072537;28;20492;-56
2024/02/03 00:27:45;;;;;;;18.23;12.97;;;9.80;99.90;;;;;;5073308;28;20476;-56
2024/02/03 00:30:12;;;;;;;16.97;13.47;;;9.80;99.90;;;;;;5073069;28;20528;-56
2024/02/03 00:32:39;;;;;;;15.77;12.60;;;9.80;99.90;;;;;;5073322;28;20520;-56
2024/02/03 00:35:08;;;;;;;14.40;12.57;;;9.80;99.90;;;;;;5073168;28;21033;-56
2024/02/03 00:37:35;;;;;;;14.80;11.97;;;9.80;99.90;;;;;;5072756;28;20939;-57
2024/02/03 00:40:03;;;;;;;15.00;12.27;;;9.80;99.90;;;;;;5073095;28;20441;-56
2024/02/03 00:42:31;;;;;;;17.90;12.63;;;9.80;99.90;;;;;;5073412;28;20445;-56
2024/02/03 00:44:58;;;;;;;14.30;12.40;;;9.80;99.90;;;;;;5073117;28;20547;-56
2024/02/03 00:47:24;;;;;;;16.70;13.47;;;9.80;99.90;;;;;;5072679;28;20480;-56
2024/02/03 00:49:51;;;;;;;15.47;12.73;;;9.80;99.90;;;;;;5073169;28;20456;-56
2024/02/03 00:52:19;;;;;;;15.67;11.50;;;9.80;99.90;;;;;;5072817;28;20463;-56
2024/02/03 00:54:46;;;;;;;15.60;11.50;;;9.80;99.90;;;;;;5072513;28;20556;-56
2024/02/03 00:57:13;;;;;;;16.07;12.33;;;9.80;99.90;;;;;;5072348;28;20810;-56
2024/02/03 00:59:40;;;;;;;16.30;13.40;;;9.80;99.90;;;;;;5072724;28;20539;-57
2024/02/03 01:02:07;;;;;;;15.07;12.37;;;9.80;99.90;;;;;;5072570;28;20964;-56
2024/02/03 01:04:34;;;;;;;16.03;12.30;;;9.80;99.90;;;;;;5072761;28;20457;-56
2024/02/03 01:07:02;;;;;;;12.27;10.60;;;9.80;99.90;;;;;;5072843;28;20456;-56
2024/02/03 01:09:30;;;;;;;14.33;12.20;;;9.80;99.90;;;;;;5072387;28;20480;-56
2024/02/03 01:11:57;;;;;;;13.80;12.40;;;9.80;99.90;;;;;;5072865;28;20893;-56
2024/02/03 01:14:25;;;;;;;14.70;11.70;;;9.90;99.90;;;;;;5072738;28;20461;-56
2024/02/03 01:16:52;;;;;;;14.57;12.40;;;9.90;99.90;;;;;;5072486;28;20441;-56
2024/02/03 01:19:19;;;;;;;13.63;11.40;;;9.80;99.90;;;;;;5072695;28;20444;-56
2024/02/03 01:21:46;;;;;;;14.10;12.10;;;9.80;99.90;;;;;;5072731;28;20449;-56
2024/02/03 01:24:12;;;;;;;14.33;11.00;;;9.80;99.90;;;;;;5072751;28;20456;-57
2024/02/03 01:26:41;;;;;;;11.97;10.70;;;9.80;99.90;;;;;;5072621;28;20954;-56
2024/02/03 01:29:07;;;;;;;14.57;11.37;;;9.80;99.90;;;;;;5072594;28;20918;-56
2024/02/03 01:31:34;;;;;;;15.10;12.07;;;9.80;99.90;;;;;;5072581;28;20447;-56
2024/02/03 01:34:01;;;;;;;12.30;11.00;;;9.80;99.90;;;;;;5072519;28;20814;-56
2024/02/03 01:36:28;;;;;;;12.60;11.30;;;9.80;99.90;;;;;;5074165;28;20539;-56
2024/02/03 01:38:55;;;;;;;13.03;11.57;;;9.80;99.90;;;;;;5076361;28;20794;-56
2024/02/03 01:41:21;;;;;;;11.63;10.40;;;9.80;99.90;;;;;;5076188;28;20440;-56
2024/02/03 01:43:50;;;;;;;12.70;11.03;;;9.80;99.90;;;;;;5076629;28;20961;-56
2024/02/03 01:46:18;;;;;;;14.00;12.17;;;9.90;99.90;;;;;;5075716;28;20463;-56
2024/02/03 01:48:47;;;;;;;12.77;11.00;;;9.80;99.90;;;;;;5076112;28;20504;-56
2024/02/03 01:51:16;;;;;;;11.30;10.20;;;9.90;99.90;;;;;;5076229;28;20441;-56
2024/02/03 01:53:45;;;;;;;12.03;10.27;;;9.80;99.90;;;;;;5075570;28;20947;-56
2024/02/03 01:56:12;;;;;;;13.00;11.17;;;9.80;99.90;;;;;;5075788;28;21024;-56
2024/02/03 01:58:38;;;;;;;11.77;9.93;;;9.90;99.90;;;;;;5076065;28;20811;-56
2024/02/03 02:01:07;;;;;;;10.60;9.33;;;9.90;99.90;;;;;;5076364;28;20448;-56
2024/02/03 02:03:35;;;;;;;12.50;10.03;;;9.90;99.90;;;;;;5075798;28;20451;-56
2024/02/03 02:06:02;;;;;;;10.93;9.60;;;9.90;99.90;;;;;;5075493;28;20518;-57
2024/02/03 02:08:33;;;;;;;10.23;9.13;;;9.80;99.90;;;;;;5075301;28;20834;-56
2024/02/03 02:11:00;;;;;;;12.17;10.27;;;9.90;99.90;;;;;;5076475;28;20494;-56
2024/02/03 02:13:30;;;;;;;11.90;10.70;;;9.80;99.90;;;;;;5075293;28;20441;-56
2024/02/03 02:15:57;;;;;;;13.80;9.90;;;9.80;99.90;;;;;;5075443;28;20468;-57
2024/02/03 02:18:26;;;;;;;12.40;10.30;;;9.80;99.90;;;;;;5075194;28;20441;-56
2024/02/03 02:20:54;;;;;;;11.40;9.57;;;9.90;99.90;;;;;;5075293;28;20451;-56
2024/02/03 02:23:21;;;;;;;10.27;8.67;;;9.90;99.90;;;;;;5075113;28;20946;-56
2024/02/03 02:25:48;;;;;;;11.60;9.30;;;9.90;99.90;;;;;;5075474;28;20560;-56
2024/02/03 02:28:15;;;;;;;9.73;8.53;;;9.90;99.90;;;;;;5075306;28;20551;-56
2024/02/03 02:30:41;;;;;;;10.07;9.00;;;9.90;99.90;;;;;;5074935;28;20441;-56
2024/02/03 02:33:09;;;;;;;10.40;9.30;;;9.90;99.90;;;;;;5074793;28;20931;-56
2024/02/03 02:35:36;;;;;;;9.60;8.33;;;9.90;99.90;;;;;;5075232;28;20902;-56
2024/02/03 02:38:04;;;;;;;10.27;9.13;;;9.90;99.90;;;;;;5075033;28;20441;-56
2024/02/03 02:40:31;;;;;;;11.30;8.80;;;9.90;99.90;;;;;;5076387;28;20445;-56
2024/02/03 02:42:58;;;;;;;10.03;9.03;;;9.90;99.90;;;;;;5075860;28;20539;-56
2024/02/03 02:45:25;;;;;;;10.70;9.00;;;9.90;99.90;;;;;;5075257;28;20543;-56
2024/02/03 02:47:52;;;;;;;10.83;7.97;;;9.90;99.90;;;;;;5074109;28;20453;-56
2024/02/03 02:50:19;;;;;;;10.13;8.43;;;9.90;99.90;;;;;;5074874;28;20444;-56
2024/02/03 02:52:46;;;;;;;9.93;8.10;;;9.80;99.90;;;;;;5074738;28;20451;-56
2024/02/03 02:55:15;;;;;;;10.10;8.10;;;9.90;99.90;;;;;;5074594;28;20970;-56
2024/02/03 02:57:41;;;;;;;13.17;8.20;;;9.90;99.90;;;;;;5074993;28;20467;-56
2024/02/03 03:00:11;;;;;;;8.13;7.33;;;9.90;99.90;;;;;;5074734;28;20452;-56
2024/02/03 03:02:38;;;;;;;9.03;7.63;;;9.90;99.90;;;;;;5074800;28;20438;-55
2024/02/03 03:05:07;;;;;;;8.30;7.50;;;9.90;99.90;;;;;;5074230;28;20468;-56
2024/02/03 03:07:34;;;;;;;9.40;7.67;;;10.00;99.90;;;;;;5074693;28;20445;-56
2024/02/03 03:10:01;;;;;;;8.73;7.83;;;10.00;99.90;;;;;;5074510;28;20480;-56
2024/02/03 03:12:29;;;;;;;9.60;7.47;;;9.90;99.90;;;;;;5074533;28;20452;-55
2024/02/03 03:14:56;;;;;;;8.37;7.20;;;9.90;99.90;;;;;;5074350;28;20460;-56
2024/02/03 03:17:23;;;;;;;9.10;7.70;;;9.90;99.90;;;;;;5074147;28;20521;-55
2024/02/03 03:19:50;;;;;;;8.57;6.77;;;9.90;99.90;;;;;;5074426;28;20813;-56
2024/02/03 03:22:18;;;;;;;7.57;6.57;;;9.90;99.90;;;;;;5074354;28;20440;-55
2024/02/03 03:24:44;;;;;;;7.50;6.70;;;9.90;99.90;;;;;;5074222;28;20518;-56
2024/02/03 03:27:11;;;;;;;7.77;7.00;;;9.90;99.90;;;;;;5074011;28;20441;-56
2024/02/03 03:29:39;;;;;;;7.10;6.40;;;9.90;99.90;;;;;;5074116;28;20483;-55
2024/02/03 03:32:07;;;;;;;8.30;6.43;;;10.00;99.90;;;;;;5074127;28;20444;-55
2024/02/03 03:34:33;;;;;;;7.60;6.70;;;10.00;99.90;;;;;;5074479;28;20460;-55
2024/02/03 03:37:00;;;;;;;6.93;6.23;;;10.00;99.90;;;;;;5074275;28;20444;-56
2024/02/03 03:39:27;;;;;;;6.80;5.67;;;10.00;99.90;;;;;;5073975;28;20459;-55
2024/02/03 03:41:54;;;;;;;6.93;6.23;;;10.00;99.90;;;;;;5074031;28;20452;-55
2024/02/03 03:44:21;;;;;;;8.40;6.37;;;10.00;99.90;;;;;;5073874;28;20494;-56
2024/02/03 03:46:49;;;;;;;8.40;6.90;;;10.00;99.90;;;;;;5073624;28;20437;-55
2024/02/03 03:49:16;;;;;;;7.60;6.50;;;10.00;99.90;;;;;;5073439;28;20480;-55
2024/02/03 03:51:43;;;;;;;8.57;6.40;;;10.10;99.90;;;;;;5073161;28;20977;-56
2024/02/03 03:54:10;;;;;;;10.50;6.53;;;10.10;99.90;;;;;;5073768;28;20425;-56
2024/02/03 03:56:36;;;;;;;8.40;7.50;;;10.10;99.90;;;;;;5073636;28;20445;-55
2024/02/03 03:59:03;;;;;;;10.27;6.83;;;10.10;99.90;;;;;;5073507;28;20433;-55
2024/02/03 04:01:30;;;;;;;12.03;7.30;;;10.10;99.90;;;;;;5073657;28;20445;-55
2024/02/03 04:03:58;;;;;;;9.10;7.90;;;10.10;99.90;;;;;;5073645;28;20437;-55
2024/02/03 04:06:25;;;;;;;8.70;7.27;;;10.10;99.90;;;;;;5073594;28;20461;-55
2024/02/03 04:08:51;;;;;;;9.20;7.37;;;10.20;99.90;;;;;;5073682;28;20465;-55
2024/02/03 04:11:18;;;;;;;10.00;8.77;;;10.20;99.90;;;;;;5073103;28;20943;-55
2024/02/03 04:13:44;;;;;;;9.03;7.57;;;10.20;99.90;;;;;;5074113;28;20441;-55
2024/02/03 04:16:11;;;;;;;8.10;7.30;;;10.20;99.90;;;;;;5073512;28;20469;-55
2024/02/03 04:18:38;;;;;;;9.47;8.47;;;10.20;99.90;;;;;;5073528;28;20432;-55
2024/02/03 04:21:06;;;;;;;12.63;7.90;;;10.20;99.90;;;;;;5073386;28;20441;-55
2024/02/03 04:23:32;;;;;;;9.23;8.23;;;10.20;99.90;;;;;;5072924;28;20445;-55
2024/02/03 04:25:59;;;;;;;9.10;8.20;;;10.20;99.90;;;;;;5073299;28;20460;-55
2024/02/03 04:28:26;;;;;;;8.93;7.87;;;10.20;99.90;;;;;;5073065;28;21033;-55
2024/02/03 04:30:55;;;;;;;9.53;8.60;;;10.30;99.90;;;;;;5070211;28;20448;-56
2024/02/03 04:33:21;;;;;;;9.73;7.90;;;10.30;99.90;;;;;;5053167;28;20437;-55
2024/02/03 04:35:48;;;;;;;9.53;8.53;;;10.30;99.90;;;;;;5053217;28;20468;-55
2024/02/03 04:38:16;;;;;;;10.40;8.57;;;10.30;99.90;;;;;;5052933;28;20445;-56
2024/02/03 04:40:43;;;;;;;9.63;8.57;;;10.20;99.90;;;;;;5052971;28;20446;-55
2024/02/03 04:43:10;;;;;;;9.60;8.00;;;10.30;99.90;;;;;;5053338;28;20446;-55
2024/02/03 04:45:36;;;;;;;10.60;8.67;;;10.20;99.90;;;;;;5052933;28;20449;-56
2024/02/03 04:48:03;;;;;;;9.10;7.83;;;10.30;99.90;;;;;;5053207;28;20461;-55
2024/02/03 04:50:30;;;;;;;9.57;8.60;;;10.30;99.90;;;;;;5052900;28;20485;-55
2024/02/03 04:52:57;;;;;;;9.93;8.13;;;10.30;99.90;;;;;;5052787;28;20450;-55
2024/02/03 04:55:25;;;;;;;10.30;9.20;;;10.30;99.90;;;;;;5053356;28;20468;-55
2024/02/03 04:57:52;;;;;;;11.80;9.10;;;10.30;99.90;;;;;;5053072;28;20442;-55
2024/02/03 05:00:19;;;;;;;10.40;9.33;;;10.30;99.90;;;;;;5052904;28;20947;-55
2024/02/03 05:02:45;;;;;;;19.90;9.30;;;10.30;99.90;;;;;;5053390;28;20445;-55
2024/02/03 05:05:12;;;;;;;12.70;11.13;;;10.30;99.90;;;;;;5052816;28;20846;-55
2024/02/03 05:07:39;;;;;;;17.67;9.73;;;10.30;99.90;;;;;;5053119;28;20452;-55
2024/02/03 05:10:08;;;;;;;13.40;9.17;;;10.30;99.90;;;;;;5052966;28;20560;-55
2024/02/03 05:12:36;;;;;;;12.70;8.40;;;10.30;99.90;;;;;;5056510;28;20441;-56
2024/02/03 05:15:03;;;;;;;11.37;9.37;;;10.20;99.90;;;;;;5056833;28;20992;-55
2024/02/03 05:17:30;;;;;;;11.00;8.20;;;10.30;99.90;;;;;;5057090;28;20798;-55
2024/02/03 05:19:57;;;;;;;10.63;8.90;;;10.30;99.90;;;;;;5056877;28;20469;-55
2024/02/03 05:22:24;;;;;;;10.03;9.00;;;10.30;99.90;;;;;;5056935;28;20457;-55
2024/02/03 05:24:50;;;;;;;10.57;8.93;;;10.30;99.90;;;;;;5056611;28;20478;-56
2024/02/03 05:27:17;;;;;;;11.07;9.47;;;10.20;99.90;;;;;;5057751;28;20448;-55
2024/02/03 05:29:45;;;;;;;11.77;10.33;;;10.30;99.90;;;;;;5056987;28;20995;-55
2024/02/03 05:32:13;;;;;;;11.77;9.60;;;10.20;99.90;;;;;;5056939;28;20449;-54
2024/02/03 05:34:39;;;;;;;11.10;10.00;;;10.30;99.90;;;;;;5057275;28;20470;-54
2024/02/03 05:37:06;;;;;;;11.40;10.20;;;10.30;99.90;;;;;;5056839;28;20441;-54
2024/02/03 05:39:33;;;;;;;14.23;10.00;;;10.30;99.90;;;;;;5056998;28;20449;-54
2024/02/03 05:41:59;;;;;;;13.40;9.73;;;10.30;99.90;;;;;;5056850;28;20437;-54
2024/02/03 05:44:26;;;;;;;13.90;10.53;;;10.30;99.90;;;;;;5057339;28;20445;-55
2024/02/03 05:46:54;;;;;;;11.20;9.23;;;10.30;99.90;;;;;;5057019;28;20821;-54
2024/02/03 05:49:21;;;;;;;12.57;10.57;;;10.30;99.90;;;;;;5056969;28;20484;-55
2024/02/03 05:51:48;;;;;;;12.00;10.77;;;10.30;99.90;;;;;;5057725;28;20456;-55
2024/02/03 05:54:14;;;;;;;11.73;10.17;;;10.30;99.90;;;;;;5057763;28;20434;-55
2024/02/03 05:56:41;;;;;;;14.03;9.70;;;10.30;99.90;;;;;;5058223;28;20457;-55
2024/02/03 05:59:08;;;;;;;11.20;8.87;;;10.30;99.90;;;;;;5057560;28;20442;-55
2024/02/03 06:01:35;;;;;;;10.93;9.63;;;10.40;99.90;;;;;;5057040;28;20450;-55
2024/02/03 06:04:04;;;;;;;14.03;8.90;;;10.30;99.90;;;;;;5056700;28;20449;-55
2024/02/03 06:06:31;;;;;;;13.30;8.97;;;10.30;99.90;;;;;;5056013;28;20980;-55
2024/02/03 06:08:58;;;;;;;16.30;10.00;;;10.30;99.90;;;;;;5056272;28;20441;-55
2024/02/03 06:11:25;;;;;;;12.00;9.30;;;10.30;99.90;;;;;;5056256;28;20453;-55
2024/02/03 06:13:51;;;;;;;11.77;9.67;;;10.30;99.90;;;;;;5055931;28;20441;-55
2024/02/03 06:16:18;;;;;;;10.67;9.17;;;10.30;99.90;;;;;;5055395;28;20464;-55
2024/02/03 06:18:45;;;;;;;12.53;9.63;;;10.30;99.90;;;;;;5055758;28;20445;-55
2024/02/03 06:21:13;;;;;;;10.70;9.40;;;10.30;99.90;;;;;;5055639;28;20809;-55
2024/02/03 06:23:40;;;;;;;12.73;9.73;;;10.30;99.90;;;;;;5053893;28;20450;-55
2024/02/03 06:26:07;;;;;;;12.77;10.00;;;10.30;99.90;;;;;;5056036;28;20461;-55
2024/02/03 06:28:33;;;;;;;11.93;9.67;;;10.40;99.90;;;;;;5055441;28;20446;-57
2024/02/03 06:31:00;;;;;;;13.83;9.70;;;10.30;99.90;;;;;;5055198;28;20865;-56
2024/02/03 06:33:27;;;;;;;11.80;10.10;;;10.30;99.90;;;;;;5055192;28;20438;-57
2024/02/03 06:35:54;;;;;;;11.43;9.13;;;10.30;99.90;;;;;;5055176;28;20457;-57
2024/02/03 06:38:22;;;;;;;12.00;9.80;;;10.30;99.90;;;;;;5055302;28;20445;-56
2024/02/03 06:40:49;;;;;;;12.10;10.80;;;10.30;99.90;;;;;;5055229;28;20792;-57
2024/02/03 06:43:16;;;;;;;12.47;9.87;;;10.30;99.90;;;;;;5055243;28;20450;-56
2024/02/03 06:45:43;;;;;;;11.27;8.97;;;10.30;99.90;;;;;;5055332;28;20464;-56
2024/02/03 06:48:09;;;;;;;14.67;10.20;;;10.40;99.90;;;;;;5055143;28;20519;-56
2024/02/03 06:50:36;;;;;;;12.73;9.20;;;10.40;99.90;;;;;;5054956;28;20466;-56
2024/02/03 06:53:03;;;;;;;12.17;9.87;;;10.30;99.90;;;;;;5054567;28;20465;-57
2024/02/03 06:55:31;;;;;;;12.50;10.37;;;10.30;99.90;;;;;;5054870;28;20552;-56
2024/02/03 06:57:57;;;;;;;11.30;9.47;;;10.30;99.90;;;;;;5054760;28;20437;-57
2024/02/03 07:00:24;;;;;;;11.27;9.63;;;10.30;99.90;;;;;;5054860;28;20437;-56
2024/02/03 07:02:51;;;;;;;11.33;9.83;;;10.30;99.90;;;;;;5054804;28;20449;-56
2024/02/03 07:05:18;;;;;;;14.10;9.67;;;10.30;99.90;;;;;;5054685;28;20466;-56
2024/02/03 07:07:45;;;;;;;10.87;9.73;;;10.30;99.90;;;;;;5054597;28;20522;-56
2024/02/03 07:10:11;;;;;;;11.27;9.50;;;10.30;99.90;;;;;;5054450;28;20853;-56
2024/02/03 07:12:39;;;;;;;12.97;10.60;;;10.30;99.90;;;;;;5054419;28;20442;-56
2024/02/03 07:15:08;;;;;;;13.53;10.23;;;10.30;99.90;;;;;;5054195;28;20994;-56
2024/02/03 07:17:34;;;;;;;11.20;9.80;;;10.30;99.90;;;;;;5054445;28;20480;-56
2024/02/03 07:20:01;;;;;;;12.40;9.77;;;10.40;99.90;;;;;;5054369;28;20959;-56
2024/02/03 07:22:28;;;;;;;14.97;11.57;;;10.40;99.90;;;;;;5054378;28;20452;-57
2024/02/03 07:24:55;;;;;;;11.87;9.50;;;10.30;99.90;;;;;;5054288;28;20523;-57
2024/02/03 07:27:22;;;;;;;14.57;9.10;;;10.40;99.90;;;;;;5054332;28;20438;-56
2024/02/03 07:29:51;;;;;;;12.30;10.37;;;10.40;99.90;;;;;;5053771;28;21009;-56
2024/02/03 07:32:17;;;;;;;10.77;9.67;;;10.40;99.90;;;;;;5053720;28;20809;-56
2024/02/03 07:34:44;;;;;;;15.50;9.70;;;10.40;99.90;;;;;;5053636;28;20469;-56
2024/02/03 07:37:11;;;;;;;16.20;10.50;;;10.40;99.90;;;;;;5054148;28;20452;-56
2024/02/03 07:39:37;;;;;;;13.00;9.90;;;10.40;99.90;;;;;;5053788;28;20821;-56
2024/02/03 07:42:05;;;;;;;15.37;12.13;;;10.50;99.90;;;;;;5053998;28;20437;-55
2024/02/03 07:44:32;;;;;;;11.90;9.20;;;10.50;99.90;;;;;;5053826;28;20462;-55
2024/02/03 07:47:00;;;;;;;12.80;9.40;;;10.40;99.90;;;;;;5053987;28;20449;-55
2024/02/03 07:49:27;;;;;;;12.60;9.60;;;10.50;99.90;;;;;;5053784;28;20441;-55
2024/02/03 07:51:54;;;;;;;14.00;11.17;;;10.50;99.90;;;;;;5053366;28;20954;-56
2024/02/03 07:54:21;;;;;;;14.83;10.23;;;10.40;99.90;;;;;;5053283;28;20803;-56
2024/02/03 07:56:47;;;;;;;14.17;9.20;;;10.50;99.90;;;;;;5053473;28;20834;-55
2024/02/03 07:59:15;;;;;;;12.60;9.97;;;10.50;99.90;;;;;;5053790;28;20448;-55
2024/02/03 08:01:41;;;;;;;15.10;9.40;;;10.50;99.90;;;;;;5053360;28;20973;-55
2024/02/03 08:04:09;;;;;;;14.13;9.47;;;10.50;99.90;;;;;;5053600;28;20473;-55
2024/02/03 08:06:36;;;;;;;12.33;9.43;;;10.60;99.90;;;;;;5053125;28;20787;-55
2024/02/03 08:09:03;;;;;;;12.00;8.90;;;10.50;99.90;;;;;;5054232;28;20453;-55
2024/02/03 08:11:30;;;;;;;14.43;9.60;;;10.50;99.90;;;;;;5053332;28;20493;-55
2024/02/03 08:13:57;;;;;;;12.70;9.23;;;10.50;99.90;;;;;;5053521;28;20445;-55
2024/02/03 08:16:24;;;;;;;12.73;8.80;;;10.60;99.90;;;;;;5053422;28;20470;-55
2024/02/03 08:18:51;;;;;;;13.50;10.07;;;10.60;99.90;;;;;;5053427;28;20437;-55
2024/02/03 08:21:20;;;;;;;11.20;9.00;;;10.60;99.90;;;;;;5053302;28;20441;-55
2024/02/03 08:23:46;;;;;;;13.10;8.70;;;10.60;99.90;;;;;;5053401;28;20456;-55
2024/02/03 08:26:13;;;;;;;13.40;8.60;;;10.70;99.90;;;;;;5053363;28;20835;-55
2024/02/03 08:28:40;;;;;;;11.70;9.20;;;10.70;99.90;;;;;;5053417;28;20438;-55
2024/02/03 08:31:07;;;;;;;13.60;10.30;;;10.70;99.90;;;;;;5053063;28;20488;-56
2024/02/03 08:33:33;;;;;;;10.93;9.37;;;10.70;99.90;;;;;;5052877;28;21042;-56
2024/02/03 08:36:00;;;;;;;11.03;8.57;;;10.70;99.90;;;;;;5053215;28;20481;-55
2024/02/03 08:38:28;;;;;;;9.70;8.10;;;10.80;99.90;;;;;;5053271;28;20447;-57
2024/02/03 08:40:55;;;;;;;10.90;8.00;;;10.80;99.90;;;;;;5053291;28;20465;-56
2024/02/03 08:43:22;;;;;;;12.23;7.90;;;10.80;99.90;;;;;;5053156;28;20445;-56
2024/02/03 08:45:48;;;;;;;10.97;7.53;;;10.80;99.90;;;;;;5053598;28;21013;-56
2024/02/03 08:48:15;;;;;;;8.90;8.00;;;10.80;99.90;;;;;;5057278;28;20445;-56
2024/02/03 08:50:42;;;;;;;11.07;8.13;;;10.80;99.90;;;;;;5057138;28;20481;-56
2024/02/03 08:53:09;;;;;;;9.53;8.53;;;10.80;99.90;;;;;;5056835;28;20970;-56
2024/02/03 08:55:37;;;;;;;9.00;7.90;;;10.90;99.90;;;;;;5056832;28;21022;-56
2024/02/03 08:58:04;;;;;;;10.33;8.80;;;10.90;99.90;;;;;;5057140;28;20437;-56
2024/02/03 09:00:31;;;;;;;8.87;7.80;;;10.90;99.90;;;;;;5056861;28;20440;-56
2024/02/03 09:02:58;;;;;;;8.80;7.33;;;10.90;99.90;;;;;;5057280;28;20446;-57
2024/02/03 09:05:24;;;;;;;10.37;8.07;;;10.90;99.90;;;;;;5057471;28;20469;-56
2024/02/03 09:07:52;;;;;;;8.87;7.90;;;10.90;99.90;;;;;;5058380;28;20445;-56
2024/02/03 09:10:19;;;;;;;8.43;7.53;;;10.90;99.90;;;;;;5057998;28;20477;-56
2024/02/03 09:12:47;;;;;;;9.23;8.03;;;10.90;99.90;;;;;;5057379;28;20445;-56
2024/02/03 09:15:14;;;;;;;8.93;7.67;;;10.90;99.90;;;;;;5057088;28;20461;-56
2024/02/03 09:17:40;;;;;;;11.57;8.67;;;10.90;99.90;;;;;;5056639;28;20943;-56
2024/02/03 09:20:08;;;;;;;11.30;7.40;;;10.90;99.90;;;;;;5056732;28;20442;-56
2024/02/03 09:22:35;;;;;;;9.70;8.13;;;11.00;99.90;;;;;;5056740;28;20465;-56
2024/02/03 09:25:02;;;;;;;9.23;8.30;;;11.00;99.90;;;;;;5056709;28;20473;-56
2024/02/03 09:27:28;;;;;;;12.23;7.50;;;11.00;99.90;;;;;;5056537;28;20805;-57
2024/02/03 09:29:57;;;;;;;9.80;7.50;;;11.00;99.90;;;;;;5056485;28;20448;-56
2024/02/03 09:32:28;;;;;;;12.93;7.90;;;11.00;99.90;;;;;;5056388;28;20481;-56
2024/02/03 09:34:55;;;;;;;11.70;8.20;;;11.00;99.90;;;;;;5056421;28;20461;-56
2024/02/03 09:37:22;;;;;;;12.57;8.57;;;11.00;99.90;;;;;;5056873;28;20445;-56
2024/02/03 09:39:49;;;;;;;12.27;8.63;;;11.00;99.90;;;;;;5056095;28;20955;-56
2024/02/03 09:42:16;;;;;;;9.90;8.33;;;11.00;99.90;;;;;;5056581;28;20456;-56
2024/02/03 09:44:44;;;;;;;11.63;8.80;;;11.00;99.90;;;;;;5056295;28;20472;-56
2024/02/03 09:47:14;;;;;;;10.07;8.07;;;11.00;99.90;;;;;;5056240;28;20464;-56
2024/02/03 09:49:41;;;;;;;11.67;8.50;;;11.10;99.90;;;;;;5056503;28;20472;-56
2024/02/03 09:52:13;;;;;;;12.27;9.33;;;11.00;99.90;;;;;;5055898;28;20875;-55
2024/02/03 09:54:44;;;;;;;12.70;9.30;;;11.00;99.90;;;;;;5056260;28;20469;-56
2024/02/03 09:57:11;;;;;;;12.43;9.10;;;11.00;99.90;;;;;;5056495;28;20438;-56
2024/02/03 09:59:38;;;;;;;15.80;10.07;;;11.10;99.90;;;;;;5056055;28;20450;-56
2024/02/03 10:02:06;;;;;;;12.80;10.07;;;11.00;99.90;;;;;;5055973;28;20446;-56
2024/02/03 10:04:46;;;;;;;16.80;10.83;;;11.00;99.90;;;;;;5055972;28;20474;-56
2024/02/03 10:07:17;;;;;;;11.67;9.57;;;11.10;99.90;;;;;;5056295;28;20422;-56
2024/02/03 10:09:44;;;;;;;13.33;10.03;;;11.10;99.90;;;;;;5055933;28;20438;-56
2024/02/03 10:12:17;;;;;;;12.87;10.10;;;11.10;99.90;;;;;;5055712;28;20485;-57
2024/02/03 10:14:44;;;;;;;12.60;9.97;;;11.10;99.90;;;;;;5055535;28;20469;-56
2024/02/03 10:17:11;;;;;;;18.87;10.30;;;11.10;99.90;;;;;;5055656;28;20449;-56
2024/02/03 10:19:39;;;;;;;17.50;10.90;;;11.10;99.90;;;;;;5055678;28;20442;-56
2024/02/03 10:22:08;;;;;;;14.53;10.47;;;11.20;99.90;;;;;;5055642;28;20441;-55
2024/02/03 10:24:34;;;;;;;14.13;10.37;;;11.20;99.90;;;;;;5055658;28;20461;-55
2024/02/03 10:27:02;;;;;;;12.57;10.63;;;11.30;99.90;;;;;;5055180;28;20808;-56
2024/02/03 10:29:29;;;;;;;17.10;10.70;;;11.30;99.90;;;;;;5055668;28;20448;-56
2024/02/03 10:31:56;;;;;;;14.33;11.10;;;11.30;99.90;;;;;;5054962;28;21058;-55
2024/02/03 10:34:23;;;;;;;13.47;9.83;;;11.30;99.90;;;;;;5055201;28;20453;-55
2024/02/03 10:36:50;;;;;;;19.10;9.80;;;11.40;99.90;;;;;;5054926;28;20931;-56
2024/02/03 10:39:19;;;;;;;16.13;10.20;;;11.40;99.90;;;;;;5055357;28;20456;-56
2024/02/03 10:41:48;;;;;;;20.60;12.57;;;11.40;99.90;;;;;;5055275;28;20449;-56
2024/02/03 10:44:21;;;;;;;25.37;12.00;;;11.40;99.90;;;;;;5055091;28;20442;-56
2024/02/03 10:46:51;;;;;;;16.30;10.13;;;11.40;99.90;;;;;;5055227;28;20480;-56
2024/02/03 10:49:26;;;;;;;10.77;9.67;;;11.30;99.90;;;;;;5055101;28;20453;-56
2024/02/03 10:51:55;;;;;;;16.67;11.00;;;11.30;99.90;;;;;;5055085;28;20465;-56
2024/02/03 10:54:26;;;;;;;16.80;11.37;;;11.30;99.90;;;;;;5054918;28;21006;-56
2024/02/03 10:56:54;;;;;;;12.03;10.17;;;11.30;99.90;;;;;;5054993;28;20444;-56
2024/02/03 10:59:21;;;;;;;12.37;9.73;;;11.30;99.90;;;;;;5054834;28;20549;-56
2024/02/03 11:01:48;;;;;;;16.60;10.43;;;11.30;99.90;;;;;;5054481;28;20453;-57
2024/02/03 11:04:16;;;;;;;12.80;8.73;;;11.30;99.90;;;;;;5055507;28;20456;-56
2024/02/03 11:06:46;;;;;;;12.53;9.00;;;11.30;99.90;;;;;;5054661;28;20456;-55
2024/02/03 11:09:15;;;;;;;11.10;9.33;;;11.30;99.90;;;;;;5054252;28;20429;-56
2024/02/03 11:11:45;;;;;;;11.97;8.63;;;11.40;99.90;;;;;;5054474;28;20519;-56
2024/02/03 11:14:14;;;;;;;10.07;8.63;;;11.40;99.90;;;;;;5054768;28;20452;-56
2024/02/03 11:16:41;;;;;;;10.30;8.20;;;11.50;99.90;;;;;;5054582;28;20472;-56
2024/02/03 11:19:12;;;;;;;11.50;8.60;;;11.40;99.90;;;;;;5054580;28;20445;-57
2024/02/03 11:21:43;;;;;;;11.20;8.10;;;11.40;99.90;;;;;;5054610;28;20448;-56
2024/02/03 11:24:10;;;;;;;11.37;8.63;;;11.40;99.90;;;;;;5054328;28;20450;-56
2024/02/03 11:26:38;;;;;;;14.00;7.97;;;11.40;99.90;;;;;;5054458;28;20441;-56
2024/02/03 11:29:06;;;;;;;14.50;8.10;;;11.50;99.90;;;;;;5054291;28;20501;-56
2024/02/03 11:31:33;;;;;;;15.10;7.67;;;11.40;99.90;;;;;;5053862;28;21085;-56
2024/02/03 11:34:00;;;;;;;9.77;7.27;;;11.50;99.90;;;;;;5054051;28;20950;-56
2024/02/03 11:36:29;;;;;;;10.13;7.60;;;11.60;99.90;;;;;;5053836;28;20987;-56
2024/02/03 11:38:55;;;;;;;10.00;8.37;;;11.60;99.90;;;;;;5054184;28;20586;-56
2024/02/03 11:41:22;;;;;;;9.60;7.40;;;11.60;99.90;;;;;;5054495;28;20445;-58
2024/02/03 11:43:50;;;;;;;11.50;6.47;;;11.60;99.90;;;;;;5053846;28;20477;-57
2024/02/03 11:46:18;;;;;;;9.90;6.90;;;11.60;99.90;;;;;;5054536;28;20515;-58
2024/02/03 11:48:45;;;;;;;13.20;7.30;;;11.60;99.90;;;;;;5054445;28;20496;-57
2024/02/03 11:51:14;;;;;;;7.10;6.40;;;11.70;99.90;;;;;;5054033;28;20512;-58
2024/02/03 11:53:42;;;;;;;9.53;7.27;;;11.70;99.90;;;;;;5053677;28;20453;-57
2024/02/03 11:56:09;;;;;;;8.10;7.30;;;11.70;99.90;;;;;;5054055;28;20492;-56
2024/02/03 11:58:36;;;;;;;9.40;6.77;;;11.80;99.90;;;;;;5054088;28;20819;-55
2024/02/03 12:01:09;;;;;;;11.17;6.83;;;11.80;99.90;;;;;;5054533;28;20449;-55
2024/02/03 12:03:38;;;;;;;6.27;5.60;;;11.90;99.90;;;;;;5053634;28;20888;-56
2024/02/03 12:06:07;;;;;;;7.50;6.70;;;12.00;99.90;;;;;;5053373;28;20500;-56
2024/02/03 12:08:34;;;;;;;7.17;6.00;;;11.90;99.90;;;;;;5054073;28;20442;-57
2024/02/03 12:11:01;;;;;;;9.90;6.73;;;12.00;99.90;;;;;;5053603;28;20489;-55
2024/02/03 12:13:35;;;;;;;9.20;6.20;;;12.10;99.90;;;;;;5053751;28;20434;-54
2024/02/03 12:16:02;;;;;;;7.60;6.07;;;12.00;99.90;;;;;;5054158;28;20987;-55
2024/02/03 12:18:28;;;;;;;7.13;6.00;;;12.10;99.90;;;;;;5054498;28;20499;-55
2024/02/03 12:20:57;;;;;;;10.50;7.80;;;12.00;99.90;;;;;;5054199;28;20805;-56
2024/02/03 12:23:25;;;;;;;8.73;6.53;;;12.10;99.90;;;;;;5053829;28;20453;-55
2024/02/03 12:25:51;;;;;;;10.50;6.43;;;12.10;99.90;;;;;;5053710;28;20473;-55
2024/02/03 12:28:18;;;;;;;6.70;6.00;;;12.10;99.90;;;;;;5053696;28;20444;-56
2024/02/03 12:30:55;;;;;;;10.90;7.10;;;12.00;99.90;;;;;;5053734;28;20532;-55
2024/02/03 12:33:21;;;;;;;9.80;8.07;;;12.00;99.90;;;;;;5053442;28;20426;-55
2024/02/03 12:35:48;;;;;;;11.67;7.23;;;12.00;99.90;;;;;;5053186;28;20466;-55
2024/02/03 12:38:17;;;;;;;8.80;7.47;;;12.00;99.90;;;;;;5053420;28;20445;-56